sensor_id;sensor_type;location;lat;lon;timestamp;P1;durP1;ratioP1;P2;durP2;ratioP2
75730;SDS011;64350;47.450;19.124;2023-02-21T05:38:51;5.78;;;2.03;;
75730;SDS011;64350;47.450;19.124;2023-02-21T05:41:18;6.97;;;2.43;;
75730;SDS011;64350;47.450;19.124;2023-02-21T05:43:44;4.68;;;1.90;;
75730;SDS011;64350;47.450;19.124;2023-02-21T05:49:11;6.80;;;1.95;;
75730;SDS011;64350;47.450;19.124;2023-02-21T05:51:38;7.60;;;2.00;;
75730;SDS011;64350;47.450;19.124;2023-02-21T05:54:06;5.78;;;1.90;;
75730;SDS011;64350;47.450;19.124;2023-02-21T05:56:36;5.35;;;2.20;;
75730;SDS011;64350;47.450;19.124;2023-02-21T05:59:05;5.03;;;1.70;;
75730;SDS011;64350;47.450;19.124;2023-02-21T06:01:30;5.60;;;2.33;;
75730;SDS011;64350;47.450;19.124;2023-02-21T06:03:56;7.23;;;2.70;;
75730;SDS011;64350;47.450;19.124;2023-02-21T06:06:21;4.87;;;2.10;;
75730;SDS011;64350;47.450;19.124;2023-02-21T06:08:47;6.50;;;2.20;;
75730;SDS011;64350;47.450;19.124;2023-02-21T06:11:14;5.30;;;2.00;;
75730;SDS011;64350;47.450;19.124;2023-02-21T06:13:45;6.60;;;2.03;;
75730;SDS011;64350;47.450;19.124;2023-02-21T06:16:11;5.90;;;2.43;;
75730;SDS011;64350;47.450;19.124;2023-02-21T06:18:36;4.85;;;1.60;;
75730;SDS011;64350;47.450;19.124;2023-02-21T06:21:01;7.27;;;1.97;;
75730;SDS011;64350;47.450;19.124;2023-02-21T06:23:27;5.63;;;1.83;;
75730;SDS011;64350;47.450;19.124;2023-02-21T06:25:52;5.00;;;1.43;;
75730;SDS011;64350;47.450;19.124;2023-02-21T06:28:18;5.63;;;2.27;;
75730;SDS011;64350;47.450;19.124;2023-02-21T06:30:43;5.57;;;2.17;;
75730;SDS011;64350;47.450;19.124;2023-02-21T06:33:08;5.43;;;2.20;;
75730;SDS011;64350;47.450;19.124;2023-02-21T06:35:34;5.40;;;2.30;;
75730;SDS011;64350;47.450;19.124;2023-02-21T06:37:59;7.60;;;2.53;;
75730;SDS011;64350;47.450;19.124;2023-02-21T06:40:25;5.75;;;2.50;;
75730;SDS011;64350;47.450;19.124;2023-02-21T06:42:50;5.87;;;2.40;;
75730;SDS011;64350;47.450;19.124;2023-02-21T06:45:15;6.70;;;2.50;;
75730;SDS011;64350;47.450;19.124;2023-02-21T06:47:41;7.80;;;2.57;;
75730;SDS011;64350;47.450;19.124;2023-02-21T06:50:06;5.93;;;1.77;;
75730;SDS011;64350;47.450;19.124;2023-02-21T06:52:32;5.78;;;2.20;;
75730;SDS011;64350;47.450;19.124;2023-02-21T06:54:57;5.50;;;2.30;;
75730;SDS011;64350;47.450;19.124;2023-02-21T06:57:23;5.20;;;1.90;;
75730;SDS011;64350;47.450;19.124;2023-02-21T06:59:48;6.12;;;2.12;;
75730;SDS011;64350;47.450;19.124;2023-02-21T07:02:14;5.23;;;2.20;;
75730;SDS011;64350;47.450;19.124;2023-02-21T07:04:45;5.32;;;2.12;;
75730;SDS011;64350;47.450;19.124;2023-02-21T07:07:11;5.63;;;2.07;;
75730;SDS011;64350;47.450;19.124;2023-02-21T07:09:36;5.90;;;1.90;;
75730;SDS011;64350;47.450;19.124;2023-02-21T07:12:01;7.07;;;1.80;;
75730;SDS011;64350;47.450;19.124;2023-02-21T07:14:28;6.82;;;1.95;;
75730;SDS011;64350;47.450;19.124;2023-02-21T07:16:53;6.07;;;1.87;;
75730;SDS011;64350;47.450;19.124;2023-02-21T07:19:19;5.77;;;1.60;;
75730;SDS011;64350;47.450;19.124;2023-02-21T07:21:44;6.07;;;1.92;;
75730;SDS011;64350;47.450;19.124;2023-02-21T07:24:10;5.70;;;1.80;;
75730;SDS011;64350;47.450;19.124;2023-02-21T07:26:35;6.20;;;2.13;;
75730;SDS011;64350;47.450;19.124;2023-02-21T07:29:02;6.65;;;1.92;;
75730;SDS011;64350;47.450;19.124;2023-02-21T07:31:28;6.53;;;2.05;;
75730;SDS011;64350;47.450;19.124;2023-02-21T07:33:53;6.50;;;2.13;;
75730;SDS011;64350;47.450;19.124;2023-02-21T07:36:19;5.67;;;2.07;;
75730;SDS011;64350;47.450;19.124;2023-02-21T07:38:44;7.97;;;1.80;;
75730;SDS011;64350;47.450;19.124;2023-02-21T07:41:09;5.23;;;1.60;;
75730;SDS011;64350;47.450;19.124;2023-02-21T07:43:35;6.20;;;2.00;;
75730;SDS011;64350;47.450;19.124;2023-02-21T07:46:00;6.83;;;1.70;;
75730;SDS011;64350;47.450;19.124;2023-02-21T07:48:26;6.65;;;1.55;;
75730;SDS011;64350;47.450;19.124;2023-02-21T07:50:51;4.93;;;1.90;;
75730;SDS011;64350;47.450;19.124;2023-02-21T07:53:17;5.47;;;1.73;;
75730;SDS011;64350;47.450;19.124;2023-02-21T07:55:42;4.82;;;1.50;;
75730;SDS011;64350;47.450;19.124;2023-02-21T07:58:08;4.37;;;1.60;;
75730;SDS011;64350;47.450;19.124;2023-02-21T08:00:34;5.37;;;1.80;;
75730;SDS011;64350;47.450;19.124;2023-02-21T08:02:59;9.03;;;1.97;;
75730;SDS011;64350;47.450;19.124;2023-02-21T08:05:25;6.77;;;1.80;;
75730;SDS011;64350;47.450;19.124;2023-02-21T08:07:51;6.77;;;2.30;;
75730;SDS011;64350;47.450;19.124;2023-02-21T08:10:21;5.10;;;1.70;;
75730;SDS011;64350;47.450;19.124;2023-02-21T08:12:48;6.28;;;1.95;;
75730;SDS011;64350;47.450;19.124;2023-02-21T08:15:13;5.00;;;1.90;;
75730;SDS011;64350;47.450;19.124;2023-02-21T08:17:39;6.50;;;2.03;;
75730;SDS011;64350;47.450;19.124;2023-02-21T08:20:04;5.03;;;1.40;;
75730;SDS011;64350;47.450;19.124;2023-02-21T08:22:31;6.00;;;1.90;;
75730;SDS011;64350;47.450;19.124;2023-02-21T08:24:57;5.10;;;1.87;;
75730;SDS011;64350;47.450;19.124;2023-02-21T08:27:22;7.83;;;2.30;;
75730;SDS011;64350;47.450;19.124;2023-02-21T08:29:51;6.37;;;2.20;;
75730;SDS011;64350;47.450;19.124;2023-02-21T08:32:17;5.30;;;1.83;;
75730;SDS011;64350;47.450;19.124;2023-02-21T08:34:46;5.90;;;1.95;;
75730;SDS011;64350;47.450;19.124;2023-02-21T08:37:12;4.28;;;1.55;;
75730;SDS011;64350;47.450;19.124;2023-02-21T08:39:44;5.57;;;1.62;;
75730;SDS011;64350;47.450;19.124;2023-02-21T08:42:18;4.90;;;1.87;;
75730;SDS011;64350;47.450;19.124;2023-02-21T08:44:46;8.23;;;2.20;;
75730;SDS011;64350;47.450;19.124;2023-02-21T08:47:12;5.65;;;2.17;;
75730;SDS011;64350;47.450;19.124;2023-02-21T08:49:38;4.87;;;2.00;;
75730;SDS011;64350;47.450;19.124;2023-02-21T08:52:06;7.43;;;2.10;;
75730;SDS011;64350;47.450;19.124;2023-02-21T08:54:32;6.40;;;1.80;;
75730;SDS011;64350;47.450;19.124;2023-02-21T08:56:57;7.73;;;2.13;;
75730;SDS011;64350;47.450;19.124;2023-02-21T08:59:23;5.10;;;1.80;;
75730;SDS011;64350;47.450;19.124;2023-02-21T09:01:49;5.25;;;1.90;;
75730;SDS011;64350;47.450;19.124;2023-02-21T09:04:15;6.30;;;2.00;;
75730;SDS011;64350;47.450;19.124;2023-02-21T09:06:40;6.17;;;1.87;;
75730;SDS011;64350;47.450;19.124;2023-02-21T09:09:05;4.43;;;1.47;;
75730;SDS011;64350;47.450;19.124;2023-02-21T09:11:31;4.23;;;1.60;;
75730;SDS011;64350;47.450;19.124;2023-02-21T09:13:56;8.10;;;2.45;;
75730;SDS011;64350;47.450;19.124;2023-02-21T09:16:22;6.43;;;2.20;;
75730;SDS011;64350;47.450;19.124;2023-02-21T09:18:54;5.50;;;1.93;;
75730;SDS011;64350;47.450;19.124;2023-02-21T09:21:21;5.47;;;2.00;;
75730;SDS011;64350;47.450;19.124;2023-02-21T09:23:47;5.65;;;2.00;;
75730;SDS011;64350;47.450;19.124;2023-02-21T09:26:12;5.27;;;1.80;;
75730;SDS011;64350;47.450;19.124;2023-02-21T09:28:37;5.80;;;2.30;;
75730;SDS011;64350;47.450;19.124;2023-02-21T09:31:07;4.47;;;1.80;;
75730;SDS011;64350;47.450;19.124;2023-02-21T09:33:35;5.35;;;2.00;;
75730;SDS011;64350;47.450;19.124;2023-02-21T09:36:05;4.87;;;1.85;;
75730;SDS011;64350;47.450;19.124;2023-02-21T09:38:31;6.43;;;2.10;;
75730;SDS011;64350;47.450;19.124;2023-02-21T09:41:00;5.63;;;1.77;;
75730;SDS011;64350;47.450;19.124;2023-02-21T09:43:35;4.10;;;1.70;;
75730;SDS011;64350;47.450;19.124;2023-02-21T09:46:04;4.20;;;1.80;;
75730;SDS011;64350;47.450;19.124;2023-02-21T09:48:33;5.97;;;1.60;;
75730;SDS011;64350;47.450;19.124;2023-02-21T09:51:00;5.70;;;1.90;;
75730;SDS011;64350;47.450;19.124;2023-02-21T09:53:29;4.05;;;1.50;;
75730;SDS011;64350;47.450;19.124;2023-02-21T09:55:57;5.32;;;1.80;;
75730;SDS011;64350;47.450;19.124;2023-02-21T09:58:25;4.75;;;1.58;;
75730;SDS011;64350;47.450;19.124;2023-02-21T10:00:50;7.57;;;1.83;;
75730;SDS011;64350;47.450;19.124;2023-02-21T10:03:30;5.82;;;1.67;;
75730;SDS011;64350;47.450;19.124;2023-02-21T10:06:11;5.53;;;1.77;;
75730;SDS011;64350;47.450;19.124;2023-02-21T10:14:05;5.27;;;1.73;;
75730;SDS011;64350;47.450;19.124;2023-02-21T10:19:06;5.90;;;1.92;;
75730;SDS011;64350;47.450;19.124;2023-02-21T10:21:40;5.28;;;1.73;;
75730;SDS011;64350;47.450;19.124;2023-02-21T10:24:12;5.70;;;1.80;;
75730;SDS011;64350;47.450;19.124;2023-02-21T10:26:39;5.35;;;1.60;;
75730;SDS011;64350;47.450;19.124;2023-02-21T10:29:26;5.05;;;1.55;;
75730;SDS011;64350;47.450;19.124;2023-02-21T10:32:04;4.80;;;1.40;;
75730;SDS011;64350;47.450;19.124;2023-02-21T10:34:31;4.62;;;1.80;;
75730;SDS011;64350;47.450;19.124;2023-02-21T10:37:00;4.83;;;1.90;;
75730;SDS011;64350;47.450;19.124;2023-02-21T10:39:51;6.68;;;1.80;;
75730;SDS011;64350;47.450;19.124;2023-02-21T10:42:27;4.25;;;1.75;;
75730;SDS011;64350;47.450;19.124;2023-02-21T10:44:55;5.12;;;1.70;;
75730;SDS011;64350;47.450;19.124;2023-02-21T10:47:22;5.75;;;1.70;;
75730;SDS011;64350;47.450;19.124;2023-02-21T10:50:02;5.57;;;1.47;;
75730;SDS011;64350;47.450;19.124;2023-02-21T10:52:36;4.82;;;1.55;;
75730;SDS011;64350;47.450;19.124;2023-02-21T10:55:15;4.93;;;1.60;;
75730;SDS011;64350;47.450;19.124;2023-02-21T10:57:42;5.12;;;1.60;;
75730;SDS011;64350;47.450;19.124;2023-02-21T11:00:09;4.95;;;1.90;;
75730;SDS011;64350;47.450;19.124;2023-02-21T11:02:45;4.10;;;1.47;;
75730;SDS011;64350;47.450;19.124;2023-02-21T11:05:13;4.70;;;1.70;;
75730;SDS011;64350;47.450;19.124;2023-02-21T11:07:54;5.05;;;1.52;;
75730;SDS011;64350;47.450;19.124;2023-02-21T11:10:40;4.53;;;1.65;;
75730;SDS011;64350;47.450;19.124;2023-02-21T11:15:39;4.30;;;1.33;;
75730;SDS011;64350;47.450;19.124;2023-02-21T11:18:11;5.70;;;1.62;;
75730;SDS011;64350;47.450;19.124;2023-02-21T11:20:39;9.15;;;1.80;;
75730;SDS011;64350;47.450;19.124;2023-02-21T11:23:15;4.73;;;1.67;;
75730;SDS011;64350;47.450;19.124;2023-02-21T11:25:42;5.05;;;1.62;;
75730;SDS011;64350;47.450;19.124;2023-02-21T11:30:37;4.20;;;1.80;;
75730;SDS011;64350;47.450;19.124;2023-02-21T11:33:04;4.30;;;1.85;;
75730;SDS011;64350;47.450;19.124;2023-02-21T11:35:34;4.70;;;1.70;;
75730;SDS011;64350;47.450;19.124;2023-02-21T11:38:04;5.20;;;1.73;;
75730;SDS011;64350;47.450;19.124;2023-02-21T11:40:44;5.20;;;1.80;;
75730;SDS011;64350;47.450;19.124;2023-02-21T11:46:09;6.10;;;1.85;;
75730;SDS011;64350;47.450;19.124;2023-02-21T11:51:42;5.72;;;1.90;;
75730;SDS011;64350;47.450;19.124;2023-02-21T11:54:11;4.90;;;1.70;;
75730;SDS011;64350;47.450;19.124;2023-02-21T11:56:50;5.23;;;1.80;;
75730;SDS011;64350;47.450;19.124;2023-02-21T11:59:23;5.22;;;1.80;;
75730;SDS011;64350;47.450;19.124;2023-02-21T12:05:08;6.68;;;2.10;;
75730;SDS011;64350;47.450;19.124;2023-02-21T12:32:37;4.43;;;2.20;;
75730;SDS011;64350;47.450;19.124;2023-02-21T12:37:58;5.53;;;2.13;;
75730;SDS011;64350;47.450;19.124;2023-02-21T12:40:40;6.62;;;2.05;;
75730;SDS011;64350;47.450;19.124;2023-02-21T12:43:20;7.65;;;1.90;;
75730;SDS011;64350;47.450;19.124;2023-02-21T12:48:45;5.85;;;2.10;;
75730;SDS011;64350;47.450;19.124;2023-02-21T12:51:20;5.03;;;2.00;;
75730;SDS011;64350;47.450;19.124;2023-02-21T12:56:25;5.10;;;1.90;;
75730;SDS011;64350;47.450;19.124;2023-02-21T12:58:55;4.97;;;2.10;;
75730;SDS011;64350;47.450;19.124;2023-02-21T13:01:33;5.82;;;2.55;;
75730;SDS011;64350;47.450;19.124;2023-02-21T13:04:10;5.80;;;2.40;;
75730;SDS011;64350;47.450;19.124;2023-02-21T13:06:42;5.20;;;2.00;;
75730;SDS011;64350;47.450;19.124;2023-02-21T13:14:47;4.95;;;2.28;;
75730;SDS011;64350;47.450;19.124;2023-02-21T13:17:15;5.90;;;2.17;;
75730;SDS011;64350;47.450;19.124;2023-02-21T13:28:14;4.57;;;2.28;;
75730;SDS011;64350;47.450;19.124;2023-02-21T13:30:53;7.20;;;2.47;;
75730;SDS011;64350;47.450;19.124;2023-02-21T13:35:57;4.90;;;1.85;;
75730;SDS011;64350;47.450;19.124;2023-02-21T13:38:32;6.18;;;2.08;;
75730;SDS011;64350;47.450;19.124;2023-02-21T13:41:07;4.65;;;1.80;;
75730;SDS011;64350;47.450;19.124;2023-02-21T13:50:39;5.95;;;2.50;;
75730;SDS011;64350;47.450;19.124;2023-02-21T13:53:31;6.40;;;2.08;;
75730;SDS011;64350;47.450;19.124;2023-02-21T13:56:17;5.55;;;2.00;;
75730;SDS011;64350;47.450;19.124;2023-02-21T13:59:02;5.00;;;2.07;;
75730;SDS011;64350;47.450;19.124;2023-02-21T14:02:34;5.10;;;2.20;;
75730;SDS011;64350;47.450;19.124;2023-02-21T14:19:51;4.35;;;1.70;;
75730;SDS011;64350;47.450;19.124;2023-02-21T14:22:30;5.32;;;2.00;;
75730;SDS011;64350;47.450;19.124;2023-02-21T14:31:11;6.20;;;2.37;;
75730;SDS011;64350;47.450;19.124;2023-02-21T14:37:44;5.43;;;1.87;;
75730;SDS011;64350;47.450;19.124;2023-02-21T14:45:50;4.93;;;1.60;;
75730;SDS011;64350;47.450;19.124;2023-02-21T14:59:05;5.30;;;1.80;;
75730;SDS011;64350;47.450;19.124;2023-02-21T15:12:49;4.13;;;1.93;;
75730;SDS011;64350;47.450;19.124;2023-02-21T15:15:21;5.53;;;1.67;;
75730;SDS011;64350;47.450;19.124;2023-02-21T15:18:08;4.75;;;2.00;;
75730;SDS011;64350;47.450;19.124;2023-02-21T15:20:50;4.62;;;2.17;;
75730;SDS011;64350;47.450;19.124;2023-02-21T15:23:26;4.93;;;1.80;;
75730;SDS011;64350;47.450;19.124;2023-02-21T15:25:57;4.97;;;2.20;;
75730;SDS011;64350;47.450;19.124;2023-02-21T15:28:25;4.90;;;1.95;;
75730;SDS011;64350;47.450;19.124;2023-02-21T15:30:56;5.93;;;1.98;;
75730;SDS011;64350;47.450;19.124;2023-02-21T15:33:41;7.82;;;2.75;;
75730;SDS011;64350;47.450;19.124;2023-02-21T15:36:13;5.37;;;2.28;;
75730;SDS011;64350;47.450;19.124;2023-02-21T15:44:03;5.47;;;1.70;;
75730;SDS011;64350;47.450;19.124;2023-02-21T15:46:33;4.40;;;1.80;;
75730;SDS011;64350;47.450;19.124;2023-02-21T15:49:14;6.55;;;2.67;;
75730;SDS011;64350;47.450;19.124;2023-02-21T15:51:43;7.43;;;3.30;;
75730;SDS011;64350;47.450;19.124;2023-02-21T15:54:25;6.97;;;2.10;;
75730;SDS011;64350;47.450;19.124;2023-02-21T15:57:16;6.40;;;2.30;;
75730;SDS011;64350;47.450;19.124;2023-02-21T15:59:45;5.45;;;2.05;;
75730;SDS011;64350;47.450;19.124;2023-02-21T16:09:59;6.05;;;1.98;;
75730;SDS011;64350;47.450;19.124;2023-02-21T16:15:00;6.75;;;2.05;;
75730;SDS011;64350;47.450;19.124;2023-02-21T16:17:33;6.72;;;2.20;;
75730;SDS011;64350;47.450;19.124;2023-02-21T16:20:07;10.53;;;2.17;;
75730;SDS011;64350;47.450;19.124;2023-02-21T16:22:41;5.80;;;2.28;;
75730;SDS011;64350;47.450;19.124;2023-02-21T16:25:16;7.43;;;2.80;;
75730;SDS011;64350;47.450;19.124;2023-02-21T16:27:45;4.37;;;2.10;;
75730;SDS011;64350;47.450;19.124;2023-02-21T16:30:14;8.43;;;2.25;;
75730;SDS011;64350;47.450;19.124;2023-02-21T16:32:42;8.03;;;2.43;;
75730;SDS011;64350;47.450;19.124;2023-02-21T16:35:13;7.43;;;1.90;;
75730;SDS011;64350;47.450;19.124;2023-02-21T16:37:40;7.22;;;1.80;;
75730;SDS011;64350;47.450;19.124;2023-02-21T16:40:12;7.93;;;1.80;;
75730;SDS011;64350;47.450;19.124;2023-02-21T16:42:49;7.45;;;2.37;;
75730;SDS011;64350;47.450;19.124;2023-02-21T16:45:15;10.25;;;1.90;;
75730;SDS011;64350;47.450;19.124;2023-02-21T16:47:40;6.43;;;1.80;;
75730;SDS011;64350;47.450;19.124;2023-02-21T16:50:20;7.62;;;2.15;;
75730;SDS011;64350;47.450;19.124;2023-02-21T16:52:47;7.12;;;2.25;;
75730;SDS011;64350;47.450;19.124;2023-02-21T16:55:13;6.97;;;1.83;;
75730;SDS011;64350;47.450;19.124;2023-02-21T17:00:49;4.67;;;1.80;;
75730;SDS011;64350;47.450;19.124;2023-02-21T17:07:02;6.03;;;1.87;;
75730;SDS011;64350;47.450;19.124;2023-02-21T17:18:01;4.77;;;1.73;;
75730;SDS011;64350;47.450;19.124;2023-02-21T17:20:33;5.35;;;1.95;;
75730;SDS011;64350;47.450;19.124;2023-02-21T17:23:16;5.27;;;1.80;;
75730;SDS011;64350;47.450;19.124;2023-02-21T17:28:58;4.97;;;1.90;;
75730;SDS011;64350;47.450;19.124;2023-02-21T17:31:41;5.20;;;1.92;;
75730;SDS011;64350;47.450;19.124;2023-02-21T17:34:07;5.33;;;2.13;;
75730;SDS011;64350;47.450;19.124;2023-02-21T17:36:35;4.60;;;2.10;;
75730;SDS011;64350;47.450;19.124;2023-02-21T17:39:00;7.90;;;2.40;;
75730;SDS011;64350;47.450;19.124;2023-02-21T17:41:26;6.63;;;2.27;;
75730;SDS011;64350;47.450;19.124;2023-02-21T17:43:52;5.25;;;2.00;;
75730;SDS011;64350;47.450;19.124;2023-02-21T17:46:18;5.78;;;1.90;;
75730;SDS011;64350;47.450;19.124;2023-02-21T17:48:44;4.80;;;2.03;;
75730;SDS011;64350;47.450;19.124;2023-02-21T17:51:20;7.10;;;2.63;;
75730;SDS011;64350;47.450;19.124;2023-02-21T17:53:47;7.57;;;3.05;;
75730;SDS011;64350;47.450;19.124;2023-02-21T17:56:15;7.10;;;2.77;;
75730;SDS011;64350;47.450;19.124;2023-02-21T17:58:42;6.25;;;2.83;;
75730;SDS011;64350;47.450;19.124;2023-02-21T18:01:07;5.87;;;2.67;;
75730;SDS011;64350;47.450;19.124;2023-02-21T18:03:33;7.37;;;2.73;;
75730;SDS011;64350;47.450;19.124;2023-02-21T18:06:00;6.50;;;3.00;;
75730;SDS011;64350;47.450;19.124;2023-02-21T18:08:26;6.45;;;2.90;;
75730;SDS011;64350;47.450;19.124;2023-02-21T18:10:51;7.03;;;2.70;;
75730;SDS011;64350;47.450;19.124;2023-02-21T18:13:20;6.35;;;2.92;;
75730;SDS011;64350;47.450;19.124;2023-02-21T18:15:46;6.30;;;2.93;;
75730;SDS011;64350;47.450;19.124;2023-02-21T18:18:12;7.22;;;3.15;;
75730;SDS011;64350;47.450;19.124;2023-02-21T18:20:38;5.97;;;2.60;;
75730;SDS011;64350;47.450;19.124;2023-02-21T18:23:03;7.85;;;3.05;;
75730;SDS011;64350;47.450;19.124;2023-02-21T18:25:30;7.10;;;2.70;;
75730;SDS011;64350;47.450;19.124;2023-02-21T18:27:57;7.97;;;3.25;;
75730;SDS011;64350;47.450;19.124;2023-02-21T18:30:22;9.77;;;2.97;;
75730;SDS011;64350;47.450;19.124;2023-02-21T18:32:48;7.25;;;3.22;;
75730;SDS011;64350;47.450;19.124;2023-02-21T18:35:14;7.53;;;3.80;;
75730;SDS011;64350;47.450;19.124;2023-02-21T18:37:40;8.57;;;4.10;;
75730;SDS011;64350;47.450;19.124;2023-02-21T18:40:06;10.17;;;5.00;;
75730;SDS011;64350;47.450;19.124;2023-02-21T18:42:32;9.93;;;4.80;;
75730;SDS011;64350;47.450;19.124;2023-02-21T18:44:58;11.38;;;5.70;;
75730;SDS011;64350;47.450;19.124;2023-02-21T18:47:24;11.20;;;6.17;;
75730;SDS011;64350;47.450;19.124;2023-02-21T18:49:50;10.85;;;6.00;;
75730;SDS011;64350;47.450;19.124;2023-02-21T18:52:15;14.93;;;6.77;;
75730;SDS011;64350;47.450;19.124;2023-02-21T18:54:45;16.80;;;7.07;;
75730;SDS011;64350;47.450;19.124;2023-02-21T18:57:12;19.42;;;9.70;;
75730;SDS011;64350;47.450;19.124;2023-02-21T18:59:38;35.35;;;14.73;;
75730;SDS011;64350;47.450;19.124;2023-02-21T19:02:04;37.93;;;14.37;;
75730;SDS011;64350;47.450;19.124;2023-02-21T19:04:31;22.87;;;10.25;;
75730;SDS011;64350;47.450;19.124;2023-02-21T19:06:57;18.83;;;8.45;;
75730;SDS011;64350;47.450;19.124;2023-02-21T19:09:22;15.37;;;7.27;;
75730;SDS011;64350;47.450;19.124;2023-02-21T19:11:48;16.60;;;7.23;;
75730;SDS011;64350;47.450;19.124;2023-02-21T19:14:14;16.73;;;7.87;;
75730;SDS011;64350;47.450;19.124;2023-02-21T19:16:39;18.87;;;8.40;;
75730;SDS011;64350;47.450;19.124;2023-02-21T19:19:06;18.65;;;8.13;;
75730;SDS011;64350;47.450;19.124;2023-02-21T19:21:31;17.33;;;8.60;;
75730;SDS011;64350;47.450;19.124;2023-02-21T19:23:57;16.12;;;7.95;;
75730;SDS011;64350;47.450;19.124;2023-02-21T19:26:32;14.55;;;6.87;;
75730;SDS011;64350;47.450;19.124;2023-02-21T19:28:58;13.03;;;6.27;;
75730;SDS011;64350;47.450;19.124;2023-02-21T19:31:25;13.00;;;6.13;;
75730;SDS011;64350;47.450;19.124;2023-02-21T19:33:51;14.18;;;6.82;;
75730;SDS011;64350;47.450;19.124;2023-02-21T19:36:25;13.88;;;7.22;;
75730;SDS011;64350;47.450;19.124;2023-02-21T19:38:51;18.30;;;7.57;;
75730;SDS011;64350;47.450;19.124;2023-02-21T19:41:17;14.30;;;7.30;;
75730;SDS011;64350;47.450;19.124;2023-02-21T19:43:52;12.30;;;7.07;;
75730;SDS011;64350;47.450;19.124;2023-02-21T19:46:23;16.60;;;6.77;;
75730;SDS011;64350;47.450;19.124;2023-02-21T19:48:50;14.70;;;7.50;;
75730;SDS011;64350;47.450;19.124;2023-02-21T19:51:21;13.98;;;6.70;;
75730;SDS011;64350;47.450;19.124;2023-02-21T19:53:51;14.82;;;7.12;;
75730;SDS011;64350;47.450;19.124;2023-02-21T19:56:16;13.60;;;6.83;;
75730;SDS011;64350;47.450;19.124;2023-02-21T19:58:42;13.07;;;7.27;;
75730;SDS011;64350;47.450;19.124;2023-02-21T20:01:09;13.57;;;7.50;;
75730;SDS011;64350;47.450;19.124;2023-02-21T20:03:38;15.10;;;6.93;;
75730;SDS011;64350;47.450;19.124;2023-02-21T20:06:04;13.15;;;6.82;;
75730;SDS011;64350;47.450;19.124;2023-02-21T20:08:57;15.50;;;6.78;;
75730;SDS011;64350;47.450;19.124;2023-02-21T20:11:34;14.50;;;7.17;;
75730;SDS011;64350;47.450;19.124;2023-02-21T20:14:04;15.50;;;6.87;;
75730;SDS011;64350;47.450;19.124;2023-02-21T20:16:58;15.43;;;7.10;;
75730;SDS011;64350;47.450;19.124;2023-02-21T20:19:30;14.43;;;7.57;;
75730;SDS011;64350;47.450;19.124;2023-02-21T20:21:55;15.63;;;6.45;;
75730;SDS011;64350;47.450;19.124;2023-02-21T20:24:21;13.17;;;6.27;;
75730;SDS011;64350;47.450;19.124;2023-02-21T20:26:50;14.83;;;7.27;;
75730;SDS011;64350;47.450;19.124;2023-02-21T20:29:16;13.85;;;6.55;;
75730;SDS011;64350;47.450;19.124;2023-02-21T20:31:43;14.23;;;7.00;;
75730;SDS011;64350;47.450;19.124;2023-02-21T20:34:09;11.77;;;6.67;;
75730;SDS011;64350;47.450;19.124;2023-02-21T20:36:35;14.23;;;7.07;;
75730;SDS011;64350;47.450;19.124;2023-02-21T20:39:02;13.73;;;7.00;;
75730;SDS011;64350;47.450;19.124;2023-02-21T20:41:34;14.30;;;7.15;;
75730;SDS011;64350;47.450;19.124;2023-02-21T20:44:02;13.38;;;7.87;;
75730;SDS011;64350;47.450;19.124;2023-02-21T20:46:31;16.07;;;8.13;;
75730;SDS011;64350;47.450;19.124;2023-02-21T20:49:01;14.63;;;7.43;;
75730;SDS011;64350;47.450;19.124;2023-02-21T20:51:31;13.93;;;7.25;;
75730;SDS011;64350;47.450;19.124;2023-02-21T20:54:01;14.70;;;8.05;;
75730;SDS011;64350;47.450;19.124;2023-02-21T20:56:32;12.73;;;7.95;;
75730;SDS011;64350;47.450;19.124;2023-02-21T20:58:58;15.55;;;8.40;;
75730;SDS011;64350;47.450;19.124;2023-02-21T21:01:25;16.23;;;8.43;;
75730;SDS011;64350;47.450;19.124;2023-02-21T21:03:51;18.77;;;9.30;;
75730;SDS011;64350;47.450;19.124;2023-02-21T21:06:16;15.97;;;8.50;;
75730;SDS011;64350;47.450;19.124;2023-02-21T21:08:42;18.42;;;9.60;;
75730;SDS011;64350;47.450;19.124;2023-02-21T21:11:07;19.17;;;10.40;;
75730;SDS011;64350;47.450;19.124;2023-02-21T21:13:33;16.73;;;9.43;;
75730;SDS011;64350;47.450;19.124;2023-02-21T21:16:00;18.33;;;9.63;;
75730;SDS011;64350;47.450;19.124;2023-02-21T21:18:26;27.33;;;11.70;;
75730;SDS011;64350;47.450;19.124;2023-02-21T21:20:52;30.10;;;12.90;;
75730;SDS011;64350;47.450;19.124;2023-02-21T21:23:17;32.97;;;13.37;;
75730;SDS011;64350;47.450;19.124;2023-02-21T21:25:43;31.83;;;13.45;;
75730;SDS011;64350;47.450;19.124;2023-02-21T21:28:08;39.33;;;14.87;;
75730;SDS011;64350;47.450;19.124;2023-02-21T21:30:37;36.17;;;15.55;;
75730;SDS011;64350;47.450;19.124;2023-02-21T21:33:04;39.47;;;16.85;;
75730;SDS011;64350;47.450;19.124;2023-02-21T21:35:31;22.83;;;9.48;;
75730;SDS011;64350;47.450;19.124;2023-02-21T21:37:58;11.23;;;6.70;;
75730;SDS011;64350;47.450;19.124;2023-02-21T21:40:29;14.02;;;6.53;;
75730;SDS011;64350;47.450;19.124;2023-02-21T21:42:55;10.98;;;5.20;;
75730;SDS011;64350;47.450;19.124;2023-02-21T21:45:24;10.30;;;4.93;;
75730;SDS011;64350;47.450;19.124;2023-02-21T21:47:51;9.13;;;4.53;;
75730;SDS011;64350;47.450;19.124;2023-02-21T21:50:20;8.17;;;4.17;;
75730;SDS011;64350;47.450;19.124;2023-02-21T21:52:53;8.98;;;3.55;;
75730;SDS011;64350;47.450;19.124;2023-02-21T21:55:23;7.43;;;3.55;;
